This is the latest recevied weather packets stored in our database for station/object JF2ZGN-13. If no packets are shown the sender has not sent any weather packets the latest 1 day(s).
| Time | Temp. | Humidity | Pressure | Rain* | Wind** | Luminosity | Snow |
|---|---|---|---|---|---|---|---|
| 1836274706 | 17.22° C | 96% | 998.4 hPa | 1.52 mm | 2.68 m/s, 222° | - | - |
| 1836274556 | 17.22° C | 95% | 997.9 hPa | 1.52 mm | 3.58 m/s, 179° | - | - |
| 1836274106 | 17.22° C | 96% | 998.5 hPa | 1.52 mm | 3.13 m/s, 200° | - | - |
| 1778042871 | 12.22° C | 84% | 911.8 hPa | 0 mm | 0.45 m/s, 194° | - | - |
| 1778042271 | 11.67° C | 86% | 911.9 hPa | 0 mm | 0 m/s | - | - |
| 1778041670 | 11.67° C | 82% | 912.1 hPa | 0 mm | 0.45 m/s, 232° | - | - |
| 1778041070 | 11.67° C | 80% | 912.3 hPa | 0 mm | 0.89 m/s, 217° | - | - |
| 1778040470 | 11.67° C | 81% | 912.2 hPa | 0 mm | 0.45 m/s, 191° | - | - |
| 1778039869 | 11.11° C | 81% | 912.4 hPa | 0 mm | 0 m/s | - | - |
| 1778039268 | 11.11° C | 82% | 912.4 hPa | 0 mm | 0.45 m/s, 211° | - | - |
| 1778038668 | 11.11° C | 81% | 912.4 hPa | 0 mm | 0.45 m/s, 215° | - | - |
| 1778038068 | 11.11° C | 80% | 912.5 hPa | 0 mm | 0 m/s | - | - |
| 1778037467 | 11.11° C | 77% | 912.6 hPa | 0 mm | 0 m/s | - | - |
| 1778036867 | 11.11° C | 76% | 912.8 hPa | 0 mm | 0.45 m/s, 235° | - | - |
| 1778036266 | 11.11° C | 75% | 912.8 hPa | 0 mm | 0.89 m/s, 191° | - | - |
| 1778035666 | 11.11° C | 75% | 912.8 hPa | 0 mm | 1.79 m/s, 221° | - | - |
| 1778035066 | 11.11° C | 73% | 912.9 hPa | 0 mm | 1.34 m/s, 226° | - | - |
| 1778034465 | 11.11° C | 72% | 912.9 hPa | 0 mm | 1.79 m/s, 239° | - | - |
| 1778033864 | 11.11° C | 74% | 913 hPa | 0 mm | 0.45 m/s, 235° | - | - |
| 1778033263 | 10.56° C | 75% | 913.1 hPa | 0 mm | 0.45 m/s, 210° | - | - |
| 1778032663 | 10.56° C | 73% | 913.2 hPa | 0 mm | 0.89 m/s, 233° | - | - |
| 1778032062 | 10.56° C | 74% | 913.4 hPa | 0 mm | 0.45 m/s, 233° | - | - |
| 1778031461 | 10.56° C | 76% | 913.5 hPa | 0 mm | 0.89 m/s, 238° | - | - |
| 1778030861 | 10.56° C | 75% | 913.5 hPa | 0 mm | 0.89 m/s, 239° | - | - |
| 1778030262 | 10.56° C | 75% | 913.6 hPa | 0 mm | 1.79 m/s, 207° | - | - |
* Rain since midnight (hover to see other rain measurements)
** Current wind speed in m/s (hover to see current wind gust speed)